Terminal Aerodrome Forecast
Issued by NWS

Current Version | Previous Version | Graphics & Text | Print | Product List | Glossary On
Versions: 1 2 3 4 5 6 7 8 9 10 11 12 13 14 15 16 17 18 19 20 21 22
000
FTUS41 KILN 171000 AAB
TAFLUK
TAF AMD
KLUK 171043Z 1711/1806 00000KT P6SM OVC035
     FM171800 26004KT P6SM SCT035 BKN120
     FM172300 VRB02KT P6SM BKN100=

USA.gov is the U.S. government's official web portal to all federal, state and local government web resources and services.